Time;durP1;ratioP1;P1;durP2;ratioP2;P2;SDS_P1;SDS_P2;PMS_P1;PMS_P2;Temp;Humidity;BMP_temperature;BMP_pressure;BME280_temperature;BME280_humidity;BME280_pressure;Samples;Min_cycle;Max_cycle;Signal;HPM_P1;HPM_P2
2023/07/28 00:00:00;;;;;;;14.48;8.30;;;15.50;100.00;;;;;;5101999;28;20108;-78
2023/07/28 00:02:31;;;;;;;14.70;8.48;;;15.50;100.00;;;;;;5097018;28;20075;-78
2023/07/28 00:04:58;;;;;;;13.23;7.35;;;15.50;100.00;;;;;;5097382;28;20052;-77
2023/07/28 00:07:25;;;;;;;16.50;8.80;;;15.50;100.00;;;;;;5092978;28;20062;-77
2023/07/28 00:09:52;;;;;;;14.98;8.77;;;15.50;100.00;;;;;;5104006;28;20377;-77
2023/07/28 00:12:21;;;;;;;17.00;8.50;;;15.50;100.00;;;;;;5107013;28;20052;-77
2023/07/28 00:14:49;;;;;;;16.67;9.00;;;15.50;100.00;;;;;;5100060;28;20043;-77
2023/07/28 00:17:18;;;;;;;20.27;8.20;;;15.50;100.00;;;;;;5104455;28;20051;-78
2023/07/28 00:19:45;;;;;;;14.60;8.38;;;15.50;100.00;;;;;;5109068;28;20586;-78
2023/07/28 00:22:13;;;;;;;15.75;7.88;;;15.50;100.00;;;;;;5098966;28;20135;-77
2023/07/28 00:24:41;;;;;;;15.27;8.60;;;15.50;100.00;;;;;;5106190;28;20585;-77
2023/07/28 00:27:08;;;;;;;17.02;8.50;;;15.60;100.00;;;;;;5104478;28;20729;-77
2023/07/28 00:29:36;;;;;;;15.23;8.38;;;15.50;100.00;;;;;;5100888;28;20056;-77
2023/07/28 00:32:06;;;;;;;14.98;8.40;;;15.60;100.00;;;;;;5105007;28;20047;-77
2023/07/28 00:34:33;;;;;;;16.33;9.30;;;15.60;100.00;;;;;;5102668;28;20158;-77
2023/07/28 00:37:03;;;;;;;17.35;8.13;;;15.60;100.00;;;;;;5107876;28;20048;-77
2023/07/28 00:39:32;;;;;;;13.77;8.63;;;15.50;100.00;;;;;;5100674;28;20076;-77
2023/07/28 00:42:03;;;;;;;20.23;8.63;;;15.50;100.00;;;;;;5108393;28;20112;-77
2023/07/28 00:44:32;;;;;;;16.90;8.27;;;15.60;100.00;;;;;;5090688;28;20167;-78
2023/07/28 00:47:01;;;;;;;15.80;8.10;;;15.60;100.00;;;;;;5073676;28;20135;-77
2023/07/28 00:49:29;;;;;;;13.93;8.07;;;15.60;100.00;;;;;;5101522;28;20133;-77
2023/07/28 00:51:57;;;;;;;17.45;8.80;;;15.50;100.00;;;;;;5099636;28;20483;-77
2023/07/28 00:54:24;;;;;;;14.23;7.97;;;15.50;100.00;;;;;;5099328;28;20050;-77
2023/07/28 00:56:52;;;;;;;16.60;8.82;;;15.60;100.00;;;;;;5106476;28;20135;-77
2023/07/28 00:59:21;;;;;;;17.30;9.18;;;15.50;100.00;;;;;;5082155;28;20075;-78
2023/07/28 01:01:48;;;;;;;17.88;8.90;;;15.50;100.00;;;;;;5099873;28;20059;-77
2023/07/28 01:04:16;;;;;;;17.38;8.55;;;15.50;100.00;;;;;;5093909;28;20051;-77
2023/07/28 01:07:08;;;;;;;21.02;8.77;;;15.40;100.00;;;;;;5094400;28;20056;-77
2023/07/28 01:09:59;;;;;;;19.33;9.30;;;15.40;100.00;;;;;;5091227;28;20068;-77
2023/07/28 01:12:26;;;;;;;25.02;9.38;;;15.40;100.00;;;;;;5096711;28;20491;-78
2023/07/28 01:14:55;;;;;;;20.83;9.57;;;15.40;100.00;;;;;;5100550;28;20055;-77
2023/07/28 01:17:23;;;;;;;15.27;8.90;;;15.30;100.00;;;;;;5102821;28;20047;-77
2023/07/28 01:19:51;;;;;;;21.17;8.77;;;15.30;100.00;;;;;;5100024;28;20051;-77
2023/07/28 01:22:45;;;;;;;19.27;8.70;;;15.30;100.00;;;;;;5096308;28;20548;-77
2023/07/28 01:25:33;;;;;;;17.05;8.77;;;15.30;100.00;;;;;;5094316;28;20659;-77
2023/07/28 01:28:01;;;;;;;17.40;8.45;;;15.30;100.00;;;;;;5106525;28;20655;-77
2023/07/28 01:30:29;;;;;;;24.73;8.93;;;15.30;100.00;;;;;;5099060;28;20537;-77
2023/07/28 01:32:57;;;;;;;16.17;8.43;;;15.30;100.00;;;;;;5103312;27;20548;-77
2023/07/28 01:35:26;;;;;;;22.02;8.80;;;15.30;100.00;;;;;;5090824;28;20642;-77
2023/07/28 01:37:53;;;;;;;22.60;8.68;;;15.30;100.00;;;;;;5093489;28;20066;-77
2023/07/28 01:40:22;;;;;;;16.85;9.45;;;15.30;100.00;;;;;;5096781;28;20051;-77
2023/07/28 01:42:49;;;;;;;16.30;7.93;;;15.40;100.00;;;;;;5097864;28;20137;-76
2023/07/28 01:45:18;;;;;;;18.58;8.65;;;15.30;100.00;;;;;;5095826;28;20083;-77
2023/07/28 01:47:46;;;;;;;17.90;8.45;;;15.40;100.00;;;;;;5104397;28;20052;-78
2023/07/28 01:50:13;;;;;;;17.10;8.07;;;15.40;100.00;;;;;;5106568;28;20043;-78
2023/07/28 01:52:40;;;;;;;21.75;8.45;;;15.30;100.00;;;;;;5098006;28;20447;-78
2023/07/28 01:55:07;;;;;;;13.90;7.70;;;15.30;100.00;;;;;;5108079;28;20054;-78
2023/07/28 01:57:35;;;;;;;18.33;8.18;;;15.30;100.00;;;;;;5100986;28;20139;-78
2023/07/28 02:00:03;;;;;;;16.40;7.82;;;15.30;100.00;;;;;;5095329;28;20127;-78
2023/07/28 02:02:30;;;;;;;17.25;7.57;;;15.20;100.00;;;;;;5101425;28;20148;-78
2023/07/28 02:04:57;;;;;;;20.58;8.32;;;15.30;100.00;;;;;;5096990;28;20044;-78
2023/07/28 02:07:24;;;;;;;17.52;8.52;;;15.30;100.00;;;;;;5105723;28;20401;-78
2023/07/28 02:09:50;;;;;;;17.05;8.32;;;15.30;100.00;;;;;;5101945;28;20131;-78
2023/07/28 02:12:17;;;;;;;18.05;8.02;;;15.30;100.00;;;;;;5081584;28;20150;-78
2023/07/28 02:14:44;;;;;;;16.27;7.38;;;15.30;100.00;;;;;;5096037;28;20048;-78
2023/07/28 02:17:11;;;;;;;21.38;7.68;;;15.40;100.00;;;;;;5094620;28;20136;-78
2023/07/28 02:19:38;;;;;;;15.63;7.95;;;15.40;100.00;;;;;;5106207;28;20044;-78
2023/07/28 02:22:05;;;;;;;17.85;7.65;;;15.30;100.00;;;;;;5104377;28;20100;-78
2023/07/28 02:24:34;;;;;;;16.75;8.15;;;15.30;100.00;;;;;;5106705;28;20515;-78
2023/07/28 02:27:01;;;;;;;19.30;7.47;;;15.40;100.00;;;;;;5089763;28;20062;-78
2023/07/28 02:29:28;;;;;;;19.73;6.68;;;15.40;100.00;;;;;;5105768;28;20132;-77
2023/07/28 02:31:56;;;;;;;0.20;0.20;;;15.40;100.00;;;;;;5087329;28;20167;-77
2023/07/28 02:34:23;;;;;;;0.00;0.00;;;15.40;100.00;;;;;;5090373;28;20080;-77
2023/07/28 02:36:50;;;;;;;0.00;0.00;;;15.40;100.00;;;;;;5099323;28;20083;-77
2023/07/28 02:39:17;;;;;;;0.00;0.00;;;15.40;100.00;;;;;;5099704;28;20048;-77
2023/07/28 02:41:44;;;;;;;0.00;0.00;;;15.40;100.00;;;;;;5105555;28;20488;-77
2023/07/28 02:44:11;;;;;;;0.00;0.00;;;15.40;100.00;;;;;;5099707;28;20116;-77
2023/07/28 02:46:38;;;;;;;0.00;0.00;;;15.40;100.00;;;;;;5095023;28;20385;-77
2023/07/28 02:49:05;;;;;;;0.00;0.00;;;15.40;100.00;;;;;;5094884;28;20110;-77
2023/07/28 02:51:34;;;;;;;0.00;0.00;;;15.40;100.00;;;;;;5095273;28;20666;-77
2023/07/28 02:54:01;;;;;;;0.00;0.00;;;15.40;100.00;;;;;;5097575;28;20052;-77
2023/07/28 02:56:28;;;;;;;0.00;0.00;;;15.40;100.00;;;;;;5098520;28;20075;-77
2023/07/28 02:58:55;;;;;;;0.47;0.25;;;15.40;100.00;;;;;;5094904;28;20116;-77
2023/07/28 03:01:21;;;;;;;0.00;0.00;;;15.40;100.00;;;;;;5095284;28;20097;-77
2023/07/28 03:03:48;;;;;;;0.00;0.00;;;15.40;100.00;;;;;;5102414;28;20127;-77
2023/07/28 03:06:15;;;;;;;0.00;0.00;;;15.30;100.00;;;;;;5096970;28;20071;-77
2023/07/28 03:08:42;;;;;;;0.00;0.00;;;15.30;100.00;;;;;;5096776;28;20066;-77
2023/07/28 03:11:09;;;;;;;0.00;0.00;;;15.40;100.00;;;;;;5097589;28;20079;-77
2023/07/28 03:13:36;;;;;;;0.00;0.00;;;15.40;100.00;;;;;;5102096;28;20094;-77
2023/07/28 03:16:03;;;;;;;0.00;0.00;;;15.30;100.00;;;;;;5109173;28;20086;-77
2023/07/28 03:18:30;;;;;;;0.00;0.00;;;15.30;100.00;;;;;;5097623;28;20059;-78
2023/07/28 03:20:57;;;;;;;0.00;0.00;;;15.30;100.00;;;;;;5099890;28;20121;-77
2023/07/28 03:23:23;;;;;;;0.00;0.00;;;15.30;100.00;;;;;;5096253;28;20052;-77
2023/07/28 03:25:51;;;;;;;0.00;0.00;;;15.30;100.00;;;;;;5093752;28;20044;-77
2023/07/28 03:28:18;;;;;;;0.00;0.00;;;15.30;100.00;;;;;;5104900;28;20047;-78
2023/07/28 03:30:45;;;;;;;0.00;0.00;;;15.30;100.00;;;;;;5105248;27;20050;-77
2023/07/28 03:33:12;;;;;;;0.00;0.00;;;15.30;100.00;;;;;;5099821;28;20055;-77
2023/07/28 03:35:39;;;;;;;0.00;0.00;;;15.40;100.00;;;;;;5099283;28;20395;-77
2023/07/28 03:38:05;;;;;;;0.00;0.00;;;15.40;100.00;;;;;;5104344;28;20435;-77
2023/07/28 03:40:32;;;;;;;0.00;0.00;;;15.40;100.00;;;;;;5096781;28;20063;-77
2023/07/28 03:42:59;;;;;;;0.00;0.00;;;15.40;100.00;;;;;;5110868;28;20051;-77
2023/07/28 03:45:26;;;;;;;0.00;0.00;;;15.40;100.00;;;;;;5101946;28;20044;-77
2023/07/28 03:47:53;;;;;;;0.00;0.00;;;15.30;100.00;;;;;;5102652;28;20121;-77
2023/07/28 03:50:20;;;;;;;0.00;0.00;;;15.40;100.00;;;;;;5091197;28;20052;-77
2023/07/28 03:52:47;;;;;;;0.00;0.00;;;15.40;100.00;;;;;;5105295;28;20139;-77
2023/07/28 03:55:14;;;;;;;0.00;0.00;;;15.40;100.00;;;;;;5107022;28;20047;-77
2023/07/28 03:57:40;;;;;;;0.00;0.00;;;15.40;100.00;;;;;;5100019;28;20112;-77
2023/07/28 04:00:08;;;;;;;0.00;0.00;;;15.40;100.00;;;;;;5108961;28;20105;-78
2023/07/28 04:02:35;;;;;;;0.00;0.00;;;15.50;100.00;;;;;;5101286;28;20132;-77
2023/07/28 04:05:02;;;;;;;0.00;0.00;;;15.50;100.00;;;;;;5093396;28;20496;-75
2023/07/28 04:07:29;;;;;;;0.00;0.00;;;15.50;100.00;;;;;;5107438;28;20056;-77
2023/07/28 04:09:56;;;;;;;0.00;0.00;;;15.50;100.00;;;;;;5102926;28;20135;-77
2023/07/28 04:12:23;;;;;;;0.00;0.00;;;15.50;100.00;;;;;;5108492;28;20056;-78
2023/07/28 04:14:49;;;;;;;0.00;0.00;;;15.50;100.00;;;;;;5109390;28;20411;-78
2023/07/28 04:17:16;;;;;;;0.00;0.00;;;15.50;100.00;;;;;;5099377;28;20080;-78
2023/07/28 04:19:43;;;;;;;0.00;0.00;;;15.60;100.00;;;;;;5103997;28;20087;-78
2023/07/28 04:22:10;;;;;;;0.00;0.00;;;15.60;100.00;;;;;;5109752;28;20086;-77
2023/07/28 04:24:37;;;;;;;0.00;0.00;;;15.60;100.00;;;;;;5108688;28;20096;-78
2023/07/28 04:27:04;;;;;;;0.00;0.00;;;15.60;100.00;;;;;;5100567;28;20046;-78
2023/07/28 04:29:32;;;;;;;0.00;0.00;;;15.60;100.00;;;;;;5102170;28;20093;-78
2023/07/28 04:31:59;;;;;;;0.00;0.00;;;15.70;100.00;;;;;;5102906;28;20172;-78
2023/07/28 04:34:25;;;;;;;0.00;0.00;;;15.70;100.00;;;;;;5107102;28;20459;-78
2023/07/28 04:36:52;;;;;;;0.00;0.00;;;15.70;100.00;;;;;;5099803;28;20103;-78
2023/07/28 04:39:19;;;;;;;0.00;0.00;;;15.70;100.00;;;;;;5097545;28;20052;-78
2023/07/28 04:41:46;;;;;;;0.00;0.00;;;15.70;100.00;;;;;;5103426;28;20051;-78
2023/07/28 04:44:13;;;;;;;0.00;0.00;;;15.70;100.00;;;;;;5096780;28;20048;-78
2023/07/28 04:46:40;;;;;;;0.00;0.00;;;15.80;100.00;;;;;;5105612;28;20044;-77
2023/07/28 04:49:06;;;;;;;0.00;0.00;;;15.80;100.00;;;;;;5099686;28;20177;-77
2023/07/28 04:51:33;;;;;;;0.00;0.00;;;15.80;100.00;;;;;;5105021;28;20097;-78
2023/07/28 04:54:00;;;;;;;0.00;0.00;;;15.80;100.00;;;;;;5100275;28;20101;-77
2023/07/28 04:56:27;;;;;;;0.00;0.00;;;15.70;100.00;;;;;;5096276;28;20056;-78
2023/07/28 04:58:54;;;;;;;0.00;0.00;;;15.70;100.00;;;;;;5096939;28;20059;-78
2023/07/28 05:01:21;;;;;;;0.00;0.00;;;15.70;100.00;;;;;;5103658;28;20105;-79
2023/07/28 05:03:48;;;;;;;0.00;0.00;;;15.70;100.00;;;;;;5104819;28;20052;-78
2023/07/28 05:06:14;;;;;;;0.00;0.00;;;15.90;100.00;;;;;;5101326;28;20059;-78
2023/07/28 05:08:41;;;;;;;0.00;0.00;;;16.00;100.00;;;;;;5100289;28;20445;-78
2023/07/28 05:11:08;;;;;;;0.00;0.00;;;16.10;100.00;;;;;;5099989;28;20052;-78
2023/07/28 05:13:35;;;;;;;0.00;0.00;;;16.20;100.00;;;;;;5098403;28;20043;-78
2023/07/28 05:16:02;;;;;;;0.00;0.00;;;16.20;100.00;;;;;;5110230;28;20048;-79
2023/07/28 05:18:29;;;;;;;0.00;0.00;;;16.20;100.00;;;;;;5101569;28;20040;-78
2023/07/28 05:20:56;;;;;;;0.00;0.00;;;16.20;100.00;;;;;;5099854;28;20140;-78
2023/07/28 05:23:23;;;;;;;0.00;0.00;;;16.20;100.00;;;;;;5096092;28;20048;-78
2023/07/28 05:25:49;;;;;;;0.00;0.00;;;16.20;100.00;;;;;;5095416;28;20416;-78
2023/07/28 05:28:16;;;;;;;0.00;0.00;;;16.30;100.00;;;;;;5091275;28;20108;-79
2023/07/28 05:30:43;;;;;;;0.00;0.00;;;16.30;100.00;;;;;;5091458;28;20153;-78
2023/07/28 05:33:10;;;;;;;0.00;0.00;;;16.40;100.00;;;;;;5095779;28;20136;-78
2023/07/28 05:35:37;;;;;;;0.00;0.00;;;16.40;100.00;;;;;;5100162;28;20044;-79
2023/07/28 05:38:04;;;;;;;0.00;0.00;;;16.50;100.00;;;;;;5097406;28;20094;-79
2023/07/28 05:40:31;;;;;;;0.00;0.00;;;16.60;100.00;;;;;;5097525;28;20087;-79
2023/07/28 05:42:58;;;;;;;0.00;0.00;;;16.80;100.00;;;;;;5107403;28;20091;-79
2023/07/28 05:45:25;;;;;;;0.00;0.00;;;16.90;100.00;;;;;;5108222;28;20131;-78
2023/07/28 05:47:51;;;;;;;0.00;0.00;;;16.90;100.00;;;;;;5106806;28;20764;-79
2023/07/28 05:50:18;;;;;;;0.00;0.00;;;17.10;100.00;;;;;;5099520;28;20134;-79
2023/07/28 05:52:46;;;;;;;0.00;0.00;;;17.10;100.00;;;;;;5102110;28;20098;-78
2023/07/28 05:55:13;;;;;;;0.00;0.00;;;17.10;100.00;;;;;;5097279;28;20048;-79
2023/07/28 05:57:40;;;;;;;0.00;0.00;;;17.10;100.00;;;;;;5101812;28;20059;-78
2023/07/28 06:00:09;;;;;;;0.00;0.00;;;17.00;100.00;;;;;;5102371;28;20111;-79
2023/07/28 06:02:36;;;;;;;0.00;0.00;;;17.00;100.00;;;;;;5109030;28;20047;-79
2023/07/28 06:05:04;;;;;;;0.00;0.00;;;16.90;100.00;;;;;;5095209;28;20055;-79
2023/07/28 06:07:30;;;;;;;0.00;0.00;;;17.00;100.00;;;;;;5101462;28;20130;-78
2023/07/28 06:09:57;;;;;;;0.00;0.00;;;17.00;100.00;;;;;;5101781;28;20630;-79
2023/07/28 06:12:24;;;;;;;0.00;0.00;;;17.00;100.00;;;;;;5095280;28;20139;-79
2023/07/28 06:14:51;;;;;;;0.00;0.00;;;16.90;100.00;;;;;;5094937;28;20097;-78
2023/07/28 06:17:18;;;;;;;0.00;0.00;;;16.90;100.00;;;;;;5095900;28;20101;-78
2023/07/28 06:19:45;;;;;;;0.00;0.00;;;16.90;100.00;;;;;;5107697;28;20047;-78
2023/07/28 06:22:12;;;;;;;0.00;0.00;;;16.90;100.00;;;;;;5090255;28;20480;-78
2023/07/28 06:24:39;;;;;;;0.00;0.00;;;16.90;100.00;;;;;;5102396;28;20146;-79
2023/07/28 06:27:08;;;;;;;0.00;0.00;;;16.90;100.00;;;;;;5095685;28;20127;-78
2023/07/28 06:29:35;;;;;;;0.00;0.00;;;16.90;100.00;;;;;;5093065;28;20093;-78
2023/07/28 06:32:02;;;;;;;0.00;0.00;;;16.90;100.00;;;;;;5096424;28;20479;-79
2023/07/28 06:34:29;;;;;;;0.00;0.00;;;16.80;100.00;;;;;;5098422;28;20730;-78
2023/07/28 06:36:56;;;;;;;0.00;0.00;;;16.80;100.00;;;;;;5109310;28;20063;-78
2023/07/28 06:39:24;;;;;;;0.00;0.00;;;16.70;100.00;;;;;;5105180;28;20091;-78
2023/07/28 06:41:51;;;;;;;0.00;0.00;;;16.70;100.00;;;;;;5096477;28;20056;-79
2023/07/28 06:44:18;;;;;;;0.00;0.00;;;16.70;100.00;;;;;;5105075;28;20055;-78
2023/07/28 06:46:45;;;;;;;0.00;0.00;;;16.70;100.00;;;;;;5103525;28;20071;-78
2023/07/28 06:49:12;;;;;;;0.00;0.00;;;16.70;100.00;;;;;;5098175;28;20075;-79
2023/07/28 06:51:39;;;;;;;0.00;0.00;;;16.70;100.00;;;;;;5101387;28;20052;-78
2023/07/28 06:54:09;;;;;;;0.00;0.00;;;16.80;100.00;;;;;;5105251;28;20067;-78
2023/07/28 06:56:36;;;;;;;0.00;0.00;;;16.80;100.00;;;;;;5094638;28;21075;-79
2023/07/28 06:59:03;;;;;;;0.00;0.00;;;16.90;100.00;;;;;;5102370;28;20051;-78
2023/07/28 07:01:41;;;;;;;0.00;0.00;;;17.00;100.00;;;;;;5102345;28;20667;-78
2023/07/28 07:04:08;;;;;;;0.00;0.00;;;17.00;100.00;;;;;;5094587;28;20883;-78
2023/07/28 07:06:35;;;;;;;0.00;0.00;;;17.00;100.00;;;;;;5089265;28;20389;-78
2023/07/28 07:09:03;;;;;;;0.00;0.00;;;17.00;100.00;;;;;;5095100;28;20048;-78
2023/07/28 07:11:30;;;;;;;0.00;0.00;;;17.00;100.00;;;;;;5096992;28;20442;-78
2023/07/28 07:13:59;;;;;;;0.00;0.00;;;17.10;100.00;;;;;;5099625;28;20076;-78
2023/07/28 07:16:25;;;;;;;0.00;0.00;;;17.10;100.00;;;;;;5097033;28;20054;-78
2023/07/28 07:18:52;;;;;;;0.00;0.00;;;17.10;100.00;;;;;;5097035;28;20052;-79
2023/07/28 07:21:19;;;;;;;0.00;0.00;;;17.00;100.00;;;;;;5091976;28;20579;-78
2023/07/28 07:23:46;;;;;;;0.00;0.00;;;17.00;100.00;;;;;;5094344;28;20078;-78
2023/07/28 07:26:14;;;;;;;0.00;0.00;;;17.00;100.00;;;;;;5092505;28;20052;-78
2023/07/28 07:28:41;;;;;;;0.00;0.00;;;17.00;100.00;;;;;;5103356;28;20097;-79
2023/07/28 07:31:14;;;;;;;0.00;0.00;;;17.00;100.00;;;;;;5105669;28;20139;-79
2023/07/28 07:33:42;;;;;;;0.00;0.00;;;17.00;100.00;;;;;;5103793;28;20058;-78
2023/07/28 07:36:16;;;;;;;0.00;0.00;;;17.00;100.00;;;;;;5104680;28;21056;-78
2023/07/28 07:38:46;;;;;;;0.00;0.00;;;17.10;100.00;;;;;;5102178;28;20113;-79
2023/07/28 07:41:19;;;;;;;0.00;0.00;;;17.30;100.00;;;;;;5101070;28;20297;-79
2023/07/28 07:43:47;;;;;;;0.00;0.00;;;17.30;100.00;;;;;;5096157;28;20066;-79
2023/07/28 07:46:15;;;;;;;0.00;0.00;;;17.50;100.00;;;;;;5102085;28;20130;-78
2023/07/28 07:48:43;;;;;;;0.00;0.00;;;17.50;100.00;;;;;;5099414;28;20512;-78
2023/07/28 07:51:10;;;;;;;0.00;0.00;;;17.60;100.00;;;;;;5092492;28;20048;-78
2023/07/28 07:53:37;;;;;;;0.00;0.00;;;17.60;100.00;;;;;;5094586;28;20093;-78
2023/07/28 07:56:05;;;;;;;0.00;0.00;;;17.50;100.00;;;;;;5093393;28;20446;-78
2023/07/28 07:58:33;;;;;;;0.00;0.00;;;17.50;100.00;;;;;;5099631;28;20096;-78
2023/07/28 08:01:00;;;;;;;0.00;0.00;;;17.50;100.00;;;;;;5100883;28;20056;-78
2023/07/28 08:03:27;;;;;;;0.00;0.00;;;17.60;100.00;;;;;;5099396;28;20155;-77
2023/07/28 08:05:54;;;;;;;0.00;0.00;;;17.80;100.00;;;;;;5094470;28;20101;-77
2023/07/28 08:08:21;;;;;;;0.00;0.00;;;18.10;100.00;;;;;;5104739;28;20119;-77
2023/07/28 08:10:52;;;;;;;0.00;0.00;;;18.30;100.00;;;;;;5104130;28;20100;-78
2023/07/28 08:13:18;;;;;;;0.00;0.00;;;18.50;99.60;;;;;;5101931;28;20629;-78
2023/07/28 08:15:46;;;;;;;0.00;0.00;;;18.60;98.00;;;;;;5105573;28;20043;-78
2023/07/28 08:18:14;;;;;;;0.00;0.00;;;18.70;98.20;;;;;;5101888;28;20048;-78
2023/07/28 08:20:41;;;;;;;0.00;0.00;;;18.70;95.90;;;;;;5093148;28;20056;-78
2023/07/28 08:23:08;;;;;;;0.00;0.00;;;18.70;96.20;;;;;;5108360;28;20407;-78
2023/07/28 08:25:36;;;;;;;0.00;0.00;;;18.60;96.30;;;;;;5107305;28;20090;-78
2023/07/28 08:28:03;;;;;;;0.00;0.00;;;18.60;96.00;;;;;;5104439;28;20098;-78
2023/07/28 08:30:31;;;;;;;0.00;0.00;;;18.50;95.90;;;;;;5107841;28;20077;-78
2023/07/28 08:32:59;;;;;;;0.00;0.00;;;18.40;96.30;;;;;;5109015;28;20075;-78
2023/07/28 08:35:26;;;;;;;0.00;0.00;;;18.20;96.60;;;;;;5106658;28;20048;-78
2023/07/28 08:37:53;;;;;;;0.00;0.00;;;18.00;96.80;;;;;;5102585;28;20759;-78
2023/07/28 08:40:20;;;;;;;0.00;0.00;;;17.90;97.00;;;;;;5103453;28;20412;-78
2023/07/28 08:42:47;;;;;;;0.00;0.00;;;17.90;98.20;;;;;;5103972;28;20135;-78
2023/07/28 08:45:14;;;;;;;0.00;0.00;;;17.90;99.70;;;;;;5109527;28;20054;-78
2023/07/28 08:47:41;;;;;;;0.00;0.00;;;17.90;99.70;;;;;;5106429;28;20075;-78
2023/07/28 08:50:09;;;;;;;0.00;0.00;;;18.10;99.80;;;;;;5101112;28;20075;-78
2023/07/28 08:52:36;;;;;;;0.00;0.00;;;18.30;100.00;;;;;;5094617;28;20133;-78
2023/07/28 08:55:03;;;;;;;0.00;0.00;;;18.60;98.30;;;;;;5109454;28;20043;-78
2023/07/28 08:57:29;;;;;;;0.00;0.00;;;18.90;98.60;;;;;;5104147;28;20071;-78
2023/07/28 08:59:56;;;;;;;0.00;0.00;;;19.30;98.60;;;;;;5094066;28;20158;-78
2023/07/28 09:02:23;;;;;;;0.00;0.00;;;20.40;96.20;;;;;;5109256;28;20111;-78
2023/07/28 09:04:50;;;;;;;0.00;0.00;;;21.40;91.50;;;;;;5104383;28;20055;-79
2023/07/28 09:07:17;;;;;;;0.00;0.00;;;21.80;87.00;;;;;;5100180;28;20062;-78
2023/07/28 09:09:46;;;;;;;0.00;0.00;;;22.10;87.20;;;;;;5101304;28;20046;-79
2023/07/28 09:12:13;;;;;;;0.00;0.00;;;22.40;83.50;;;;;;5094415;28;20166;-79
2023/07/28 09:14:40;;;;;;;0.00;0.00;;;22.40;81.00;;;;;;5106558;28;20614;-78
2023/07/28 09:17:12;;;;;;;0.00;0.00;;;22.30;82.30;;;;;;5107764;28;20544;-79
2023/07/28 09:19:54;;;;;;;0.00;0.00;;;22.60;82.60;;;;;;5091375;28;20134;-79
2023/07/28 09:22:22;;;;;;;0.00;0.00;;;22.40;79.20;;;;;;5101712;28;20052;-79
2023/07/28 09:24:50;;;;;;;0.00;0.00;;;22.80;81.40;;;;;;5098744;28;20046;-79
2023/07/28 09:27:29;;;;;;;0.00;0.00;;;22.80;79.60;;;;;;5098562;28;20048;-79
2023/07/28 09:29:56;;;;;;;0.00;0.00;;;22.60;80.00;;;;;;5100584;28;20561;-79
2023/07/28 09:32:33;;;;;;;0.00;0.00;;;22.70;82.60;;;;;;5108096;28;20055;-79
2023/07/28 09:35:09;;;;;;;0.00;0.00;;;22.70;78.80;;;;;;5099234;28;20059;-79
2023/07/28 09:37:42;;;;;;;0.00;0.00;;;23.10;82.10;;;;;;5105545;28;20059;-79
2023/07/28 09:40:11;;;;;;;0.00;0.00;;;23.40;75.60;;;;;;5100153;28;20052;-79
2023/07/28 09:42:42;;;;;;;0.00;0.00;;;23.70;77.30;;;;;;5107270;28;20094;-79
2023/07/28 09:45:11;;;;;;;0.00;0.00;;;24.10;76.40;;;;;;5107575;28;20646;-79
2023/07/28 09:47:58;;;;;;;0.00;0.00;;;24.50;75.80;;;;;;5094340;28;20055;-79
2023/07/28 09:50:31;;;;;;;0.00;0.00;;;24.40;69.70;;;;;;5107107;28;20044;-79
2023/07/28 09:53:03;;;;;;;0.00;0.00;;;24.80;73.10;;;;;;5096715;28;20105;-79
2023/07/28 09:55:34;;;;;;;0.00;0.00;;;25.40;68.20;;;;;;5097937;28;20040;-80
2023/07/28 09:58:08;;;;;;;0.00;0.00;;;25.10;68.70;;;;;;5101066;28;20052;-79
2023/07/28 10:00:37;;;;;;;0.00;0.00;;;25.40;69.50;;;;;;5092260;28;20470;-79
2023/07/28 10:03:10;;;;;;;0.00;0.00;;;25.60;68.60;;;;;;5098586;28;20048;-79
2023/07/28 10:05:40;;;;;;;0.00;0.00;;;25.30;66.40;;;;;;5092459;28;20817;-79
2023/07/28 10:08:07;;;;;;;0.00;0.00;;;25.30;69.10;;;;;;5092617;28;20051;-79
2023/07/28 10:10:41;;;;;;;0.00;0.00;;;26.60;66.00;;;;;;5105630;28;20062;-79
2023/07/28 10:13:20;;;;;;;0.00;0.00;;;27.00;64.90;;;;;;5082474;28;20054;-78
2023/07/28 10:15:49;;;;;;;0.00;0.00;;;27.10;63.10;;;;;;5092170;28;20091;-79
2023/07/28 10:18:27;;;;;;;0.00;0.00;;;27.60;61.00;;;;;;5099372;28;20048;-79
2023/07/28 10:21:16;;;;;;;0.00;0.00;;;27.40;60.40;;;;;;5105916;28;20083;-79
2023/07/28 10:23:44;;;;;;;0.00;0.00;;;26.70;62.40;;;;;;5098415;28;20086;-79
2023/07/28 10:26:12;;;;;;;0.00;0.00;;;26.20;63.20;;;;;;5102301;28;20055;-79
2023/07/28 10:28:43;;;;;;;0.00;0.00;;;25.70;65.70;;;;;;5097900;28;20662;-79
2023/07/28 10:31:12;;;;;;;0.00;0.00;;;25.30;64.60;;;;;;5080453;28;20131;-79
2023/07/28 10:33:46;;;;;;;0.00;0.00;;;24.40;67.90;;;;;;5102461;28;20079;-78
2023/07/28 10:36:33;;;;;;;0.00;0.00;;;24.40;68.50;;;;;;5099518;28;20391;-78
2023/07/28 10:39:17;;;;;;;0.00;0.00;;;24.60;66.90;;;;;;5093445;28;20145;-78
2023/07/28 10:42:01;;;;;;;0.00;0.00;;;25.10;65.00;;;;;;5098152;28;20639;-79
2023/07/28 10:44:29;;;;;;;0.00;0.00;;;24.50;66.90;;;;;;5100120;28;20481;-78
2023/07/28 10:46:58;;;;;;;0.00;0.00;;;24.30;69.60;;;;;;5080110;28;20140;-78
2023/07/28 10:49:29;;;;;;;0.00;0.00;;;24.10;67.40;;;;;;5098783;28;20054;-77
2023/07/28 10:51:56;;;;;;;0.00;0.00;;;23.50;68.70;;;;;;5101556;28;20121;-77
2023/07/28 10:54:26;;;;;;;0.00;0.00;;;23.60;71.70;;;;;;5099485;28;21272;-77
2023/07/28 10:56:55;;;;;;;0.00;0.00;;;23.60;70.30;;;;;;5078324;28;20039;-77
2023/07/28 10:59:23;;;;;;;0.00;0.00;;;23.40;69.60;;;;;;5100759;28;20052;-77
2023/07/28 11:01:51;;;;;;;0.00;0.00;;;23.20;71.50;;;;;;5095817;28;20047;-77
2023/07/28 11:04:20;;;;;;;0.00;0.00;;;23.10;70.50;;;;;;5089400;28;20052;-77
2023/07/28 11:06:51;;;;;;;0.03;0.03;;;23.70;72.10;;;;;;5098202;28;20905;-77
2023/07/28 11:09:24;;;;;;;0.00;0.00;;;25.10;69.90;;;;;;5097824;28;20414;-78
2023/07/28 11:11:52;;;;;;;0.00;0.00;;;27.20;66.30;;;;;;5106247;28;20075;-78
2023/07/28 11:14:20;;;;;;;0.00;0.00;;;28.40;62.80;;;;;;5095304;28;20123;-78
2023/07/28 11:16:49;;;;;;;0.00;0.00;;;29.30;58.70;;;;;;5095239;28;20043;-78
2023/07/28 11:19:24;;;;;;;0.00;0.00;;;28.80;56.70;;;;;;5105711;28;20052;-78
2023/07/28 11:21:54;;;;;;;0.00;0.00;;;27.40;57.10;;;;;;5097604;28;20067;-78
2023/07/28 11:24:23;;;;;;;0.00;0.00;;;26.90;59.40;;;;;;5096293;28;20062;-78
2023/07/28 11:26:54;;;;;;;0.00;0.00;;;26.30;60.70;;;;;;5100245;28;20059;-78
2023/07/28 11:29:21;;;;;;;5.50;1.50;;;25.80;62.30;;;;;;5097367;28;20052;-78
2023/07/28 11:31:52;;;;;;;3.67;2.45;;;25.20;63.80;;;;;;5105662;28;20063;-77
2023/07/28 11:34:22;;;;;;;3.28;2.30;;;24.50;66.50;;;;;;5103179;28;20063;-77
2023/07/28 11:36:51;;;;;;;2.08;1.65;;;24.30;67.70;;;;;;5106788;28;20383;-77
2023/07/28 11:39:21;;;;;;;7.97;2.17;;;24.10;68.00;;;;;;5095271;28;20569;-77
2023/07/28 11:41:53;;;;;;;4.55;1.92;;;23.90;68.80;;;;;;5108152;28;20063;-77
2023/07/28 11:44:24;;;;;;;2.00;1.65;;;23.60;69.20;;;;;;5095144;28;20087;-76
2023/07/28 11:46:55;;;;;;;1.95;1.75;;;23.50;70.10;;;;;;5104474;28;20051;-77
2023/07/28 11:49:22;;;;;;;3.92;1.60;;;23.40;69.10;;;;;;5076759;28;20484;-77
2023/07/28 11:51:53;;;;;;;2.38;1.77;;;23.30;70.40;;;;;;5101929;28;20058;-77
2023/07/28 11:54:25;;;;;;;2.70;1.60;;;23.10;70.20;;;;;;5099849;28;20054;-77
2023/07/28 11:56:55;;;;;;;2.60;2.13;;;22.70;70.00;;;;;;5102425;28;20085;-77
2023/07/28 11:59:23;;;;;;;2.22;1.98;;;22.80;72.00;;;;;;5092548;28;20101;-77
2023/07/28 12:02:02;;;;;;;3.55;1.90;;;22.80;71.70;;;;;;5096802;28;20109;-77
2023/07/28 12:04:41;;;;;;;2.88;2.20;;;22.90;73.60;;;;;;5093778;28;20186;-77
2023/07/28 12:07:16;;;;;;;2.75;1.95;;;23.00;73.70;;;;;;5088440;28;20059;-77
2023/07/28 12:09:53;;;;;;;2.83;1.90;;;23.30;70.00;;;;;;5103149;28;20052;-77
2023/07/28 12:12:26;;;;;;;1.83;1.67;;;23.50;71.10;;;;;;5107742;28;20051;-77
2023/07/28 12:14:53;;;;;;;2.78;1.88;;;23.60;70.20;;;;;;5100760;28;20052;-77
2023/07/28 12:17:27;;;;;;;2.45;1.77;;;23.80;69.80;;;;;;5098338;28;20147;-78
2023/07/28 12:20:15;;;;;;;2.10;1.80;;;24.20;71.20;;;;;;5098251;28;20098;-77
2023/07/28 12:22:45;;;;;;;4.45;1.75;;;25.20;68.60;;;;;;5100150;28;20134;-77
2023/07/28 12:25:14;;;;;;;4.82;2.83;;;26.40;67.50;;;;;;5104034;28;20508;-78
2023/07/28 12:27:49;;;;;;;3.15;2.50;;;28.10;64.00;;;;;;5107255;28;20529;-78
2023/07/28 12:30:19;;;;;;;1.77;1.55;;;29.00;59.30;;;;;;5107095;28;20054;-78
2023/07/28 12:32:49;;;;;;;1.55;1.13;;;29.70;57.80;;;;;;5098236;28;20058;-78
2023/07/28 12:35:23;;;;;;;1.55;1.27;;;30.90;53.40;;;;;;5099556;28;20048;-78
2023/07/28 12:38:10;;;;;;;1.95;0.93;;;31.80;52.70;;;;;;5100757;28;20054;-79
2023/07/28 12:40:43;;;;;;;4.50;1.25;;;32.50;50.70;;;;;;5097966;28;20133;-78
2023/07/28 12:43:12;;;;;;;1.58;1.20;;;32.80;52.60;;;;;;5105821;28;20055;-78
2023/07/28 12:46:02;;;;;;;1.50;1.17;;;33.00;48.10;;;;;;5101221;28;20514;-79